sensor_id;sensor_type;location;lat;lon;timestamp;pressure;altitude;pressure_sealevel;temperature;humidity
36092;BME280;22147;52.388;13.390;2022-07-23T00:00:31;101185.88;;;15.33;100.00
36092;BME280;22147;52.388;13.390;2022-07-23T00:03:05;101169.56;;;15.35;100.00
36092;BME280;22147;52.388;13.390;2022-07-23T00:05:33;101171.53;;;15.47;100.00
36092;BME280;22147;52.388;13.390;2022-07-23T00:08:01;101180.38;;;15.49;100.00
36092;BME280;22147;52.388;13.390;2022-07-23T00:10:28;101165.59;;;15.48;100.00
36092;BME280;22147;52.388;13.390;2022-07-23T00:12:55;101166.31;;;15.45;100.00
36092;BME280;22147;52.388;13.390;2022-07-23T00:15:22;101166.44;;;15.37;100.00
36092;BME280;22147;52.388;13.390;2022-07-23T00:17:51;101168.97;;;15.17;100.00
36092;BME280;22147;52.388;13.390;2022-07-23T00:20:18;101172.44;;;14.90;100.00
36092;BME280;22147;52.388;13.390;2022-07-23T00:22:51;101173.25;;;14.78;100.00
36092;BME280;22147;52.388;13.390;2022-07-23T00:25:22;101160.19;;;14.82;100.00
36092;BME280;22147;52.388;13.390;2022-07-23T00:27:55;101164.03;;;14.90;100.00
36092;BME280;22147;52.388;13.390;2022-07-23T00:30:23;101175.81;;;14.95;100.00
36092;BME280;22147;52.388;13.390;2022-07-23T00:32:55;101166.47;;;14.79;100.00
36092;BME280;22147;52.388;13.390;2022-07-23T00:35:31;101159.72;;;14.80;100.00
36092;BME280;22147;52.388;13.390;2022-07-23T00:38:03;101145.38;;;14.81;100.00
36092;BME280;22147;52.388;13.390;2022-07-23T00:40:31;101147.84;;;14.83;100.00
36092;BME280;22147;52.388;13.390;2022-07-23T00:42:59;101154.47;;;14.78;100.00
36092;BME280;22147;52.388;13.390;2022-07-23T00:45:27;101160.59;;;14.59;100.00
36092;BME280;22147;52.388;13.390;2022-07-23T00:47:55;101156.19;;;14.37;100.00
36092;BME280;22147;52.388;13.390;2022-07-23T00:50:23;101153.59;;;14.32;100.00
36092;BME280;22147;52.388;13.390;2022-07-23T00:52:51;101153.31;;;14.46;100.00
36092;BME280;22147;52.388;13.390;2022-07-23T00:55:19;101144.63;;;14.60;100.00
36092;BME280;22147;52.388;13.390;2022-07-23T00:57:47;101151.97;;;14.64;100.00
36092;BME280;22147;52.388;13.390;2022-07-23T01:00:15;101147.69;;;14.67;100.00
36092;BME280;22147;52.388;13.390;2022-07-23T01:02:42;101157.88;;;14.51;100.00
36092;BME280;22147;52.388;13.390;2022-07-23T01:05:10;101151.91;;;14.40;100.00
36092;BME280;22147;52.388;13.390;2022-07-23T01:07:38;101162.13;;;14.36;100.00
36092;BME280;22147;52.388;13.390;2022-07-23T01:10:06;101160.47;;;14.35;100.00
36092;BME280;22147;52.388;13.390;2022-07-23T01:12:52;101164.84;;;14.44;100.00
36092;BME280;22147;52.388;13.390;2022-07-23T01:15:19;101157.66;;;14.56;100.00
36092;BME280;22147;52.388;13.390;2022-07-23T01:17:47;101158.03;;;14.66;100.00
36092;BME280;22147;52.388;13.390;2022-07-23T01:20:14;101155.72;;;14.69;100.00
36092;BME280;22147;52.388;13.390;2022-07-23T01:22:41;101152.38;;;14.75;100.00
36092;BME280;22147;52.388;13.390;2022-07-23T01:25:09;101137.84;;;14.82;100.00
36092;BME280;22147;52.388;13.390;2022-07-23T01:27:36;101135.72;;;14.91;100.00
36092;BME280;22147;52.388;13.390;2022-07-23T01:30:05;101141.34;;;15.03;100.00
36092;BME280;22147;52.388;13.390;2022-07-23T01:32:33;101133.09;;;15.07;100.00
36092;BME280;22147;52.388;13.390;2022-07-23T01:35:00;101125.72;;;15.02;100.00
36092;BME280;22147;52.388;13.390;2022-07-23T01:37:27;101126.56;;;15.03;100.00
36092;BME280;22147;52.388;13.390;2022-07-23T01:39:54;101136.34;;;14.97;100.00
36092;BME280;22147;52.388;13.390;2022-07-23T01:42:22;101133.81;;;14.71;100.00
36092;BME280;22147;52.388;13.390;2022-07-23T01:44:50;101120.59;;;14.46;100.00
36092;BME280;22147;52.388;13.390;2022-07-23T01:47:17;101122.78;;;14.41;100.00
36092;BME280;22147;52.388;13.390;2022-07-23T01:49:44;101128.84;;;14.43;100.00
36092;BME280;22147;52.388;13.390;2022-07-23T01:52:11;101120.94;;;14.45;100.00
36092;BME280;22147;52.388;13.390;2022-07-23T01:54:39;101113.16;;;14.51;100.00
36092;BME280;22147;52.388;13.390;2022-07-23T01:57:07;101110.75;;;14.61;100.00
36092;BME280;22147;52.388;13.390;2022-07-23T01:59:35;101106.44;;;14.64;100.00
36092;BME280;22147;52.388;13.390;2022-07-23T02:02:03;101114.09;;;14.55;100.00
36092;BME280;22147;52.388;13.390;2022-07-23T02:04:30;101106.72;;;14.38;100.00
36092;BME280;22147;52.388;13.390;2022-07-23T02:06:59;101115.66;;;14.31;100.00
36092;BME280;22147;52.388;13.390;2022-07-23T02:09:27;101100.31;;;14.37;100.00
36092;BME280;22147;52.388;13.390;2022-07-23T02:11:54;101112.63;;;14.57;100.00
36092;BME280;22147;52.388;13.390;2022-07-23T02:14:22;101114.38;;;14.74;100.00
36092;BME280;22147;52.388;13.390;2022-07-23T02:16:49;101119.19;;;14.86;100.00
36092;BME280;22147;52.388;13.390;2022-07-23T02:19:16;101114.53;;;14.90;100.00
36092;BME280;22147;52.388;13.390;2022-07-23T02:21:43;101112.66;;;14.82;100.00
36092;BME280;22147;52.388;13.390;2022-07-23T02:24:10;101115.66;;;14.64;100.00
36092;BME280;22147;52.388;13.390;2022-07-23T02:26:38;101110.16;;;14.56;100.00
36092;BME280;22147;52.388;13.390;2022-07-23T02:29:05;101120.53;;;14.55;100.00
36092;BME280;22147;52.388;13.390;2022-07-23T02:31:33;101110.16;;;14.56;100.00
36092;BME280;22147;52.388;13.390;2022-07-23T02:34:01;101119.09;;;14.49;100.00
36092;BME280;22147;52.388;13.390;2022-07-23T02:36:30;101116.38;;;14.40;100.00
36092;BME280;22147;52.388;13.390;2022-07-23T02:38:57;101106.56;;;14.34;100.00
36092;BME280;22147;52.388;13.390;2022-07-23T02:41:25;101113.25;;;14.42;100.00
36092;BME280;22147;52.388;13.390;2022-07-23T02:43:52;101108.94;;;14.44;100.00
36092;BME280;22147;52.388;13.390;2022-07-23T02:46:19;101111.03;;;14.48;100.00
36092;BME280;22147;52.388;13.390;2022-07-23T02:48:46;101117.41;;;14.36;100.00
36092;BME280;22147;52.388;13.390;2022-07-23T02:51:13;101126.94;;;14.22;100.00
36092;BME280;22147;52.388;13.390;2022-07-23T02:53:41;101118.09;;;13.99;100.00
36092;BME280;22147;52.388;13.390;2022-07-23T02:56:08;101127.47;;;13.95;100.00
36092;BME280;22147;52.388;13.390;2022-07-23T02:58:36;101122.97;;;14.02;100.00
36092;BME280;22147;52.388;13.390;2022-07-23T03:01:03;101117.22;;;14.20;100.00
36092;BME280;22147;52.388;13.390;2022-07-23T03:03:31;101120.00;;;14.08;100.00
36092;BME280;22147;52.388;13.390;2022-07-23T03:05:58;101113.88;;;13.93;100.00
36092;BME280;22147;52.388;13.390;2022-07-23T03:08:25;101100.88;;;13.97;100.00
36092;BME280;22147;52.388;13.390;2022-07-23T03:10:52;101106.84;;;14.08;100.00
36092;BME280;22147;52.388;13.390;2022-07-23T03:13:19;101111.72;;;14.11;100.00
36092;BME280;22147;52.388;13.390;2022-07-23T03:15:46;101105.94;;;14.16;100.00
36092;BME280;22147;52.388;13.390;2022-07-23T03:18:13;101101.78;;;14.22;100.00
36092;BME280;22147;52.388;13.390;2022-07-23T03:20:41;101094.13;;;14.32;100.00
36092;BME280;22147;52.388;13.390;2022-07-23T03:23:08;101092.66;;;14.46;100.00
36092;BME280;22147;52.388;13.390;2022-07-23T03:25:35;101098.00;;;14.52;100.00
36092;BME280;22147;52.388;13.390;2022-07-23T03:28:03;101110.06;;;14.31;100.00
36092;BME280;22147;52.388;13.390;2022-07-23T03:30:30;101111.41;;;14.13;100.00
36092;BME280;22147;52.388;13.390;2022-07-23T03:32:57;101116.25;;;14.03;100.00
36092;BME280;22147;52.388;13.390;2022-07-23T03:35:24;101130.75;;;13.97;100.00
36092;BME280;22147;52.388;13.390;2022-07-23T03:37:51;101138.44;;;14.00;100.00
36092;BME280;22147;52.388;13.390;2022-07-23T03:40:18;101137.09;;;14.06;100.00
36092;BME280;22147;52.388;13.390;2022-07-23T03:42:45;101142.34;;;14.08;100.00
36092;BME280;22147;52.388;13.390;2022-07-23T03:45:12;101154.44;;;14.12;100.00
36092;BME280;22147;52.388;13.390;2022-07-23T03:47:39;101158.41;;;14.11;100.00
36092;BME280;22147;52.388;13.390;2022-07-23T03:50:08;101160.03;;;14.12;100.00
36092;BME280;22147;52.388;13.390;2022-07-23T03:52:35;101166.91;;;14.14;100.00
36092;BME280;22147;52.388;13.390;2022-07-23T03:55:03;101168.00;;;14.22;100.00
36092;BME280;22147;52.388;13.390;2022-07-23T03:57:31;101154.16;;;14.25;100.00
36092;BME280;22147;52.388;13.390;2022-07-23T03:59:58;101170.38;;;14.32;100.00
36092;BME280;22147;52.388;13.390;2022-07-23T04:02:25;101170.66;;;14.39;100.00
36092;BME280;22147;52.388;13.390;2022-07-23T04:04:52;101152.13;;;14.47;100.00
36092;BME280;22147;52.388;13.390;2022-07-23T04:07:19;101142.22;;;14.58;100.00
36092;BME280;22147;52.388;13.390;2022-07-23T04:09:47;101131.88;;;14.71;100.00
36092;BME280;22147;52.388;13.390;2022-07-23T04:12:14;101132.56;;;14.80;100.00
36092;BME280;22147;52.388;13.390;2022-07-23T04:14:42;101127.59;;;14.86;100.00
36092;BME280;22147;52.388;13.390;2022-07-23T04:17:09;101127.56;;;14.98;100.00
36092;BME280;22147;52.388;13.390;2022-07-23T04:19:36;101138.09;;;15.01;100.00
36092;BME280;22147;52.388;13.390;2022-07-23T04:22:08;101128.63;;;15.06;100.00
36092;BME280;22147;52.388;13.390;2022-07-23T04:24:37;101132.16;;;15.03;100.00
36092;BME280;22147;52.388;13.390;2022-07-23T04:27:05;101128.63;;;15.06;100.00
36092;BME280;22147;52.388;13.390;2022-07-23T04:29:32;101107.91;;;15.07;100.00
36092;BME280;22147;52.388;13.390;2022-07-23T04:32:00;101120.59;;;15.04;100.00
36092;BME280;22147;52.388;13.390;2022-07-23T04:34:27;101162.78;;;14.99;100.00
36092;BME280;22147;52.388;13.390;2022-07-23T04:36:54;101178.28;;;14.97;100.00
36092;BME280;22147;52.388;13.390;2022-07-23T04:39:21;101174.41;;;14.89;100.00
36092;BME280;22147;52.388;13.390;2022-07-23T04:41:48;101173.34;;;14.81;100.00
36092;BME280;22147;52.388;13.390;2022-07-23T04:44:15;101172.50;;;14.69;100.00
36092;BME280;22147;52.388;13.390;2022-07-23T04:46:43;101180.63;;;14.61;100.00
36092;BME280;22147;52.388;13.390;2022-07-23T04:49:10;101181.09;;;14.63;100.00
36092;BME280;22147;52.388;13.390;2022-07-23T04:51:37;101180.31;;;14.63;100.00
36092;BME280;22147;52.388;13.390;2022-07-23T04:54:04;101154.56;;;14.70;100.00
36092;BME280;22147;52.388;13.390;2022-07-23T04:56:31;101131.53;;;14.52;100.00
36092;BME280;22147;52.388;13.390;2022-07-23T04:58:59;101135.94;;;14.40;100.00
36092;BME280;22147;52.388;13.390;2022-07-23T05:01:26;101162.88;;;14.24;100.00
36092;BME280;22147;52.388;13.390;2022-07-23T05:03:53;101171.88;;;14.09;100.00
36092;BME280;22147;52.388;13.390;2022-07-23T05:06:20;101167.41;;;14.16;100.00
36092;BME280;22147;52.388;13.390;2022-07-23T05:08:47;101172.03;;;14.12;100.00
36092;BME280;22147;52.388;13.390;2022-07-23T05:11:15;101185.22;;;14.03;100.00
36092;BME280;22147;52.388;13.390;2022-07-23T05:13:42;101161.53;;;14.09;100.00
36092;BME280;22147;52.388;13.390;2022-07-23T05:16:09;101178.97;;;14.06;100.00
36092;BME280;22147;52.388;13.390;2022-07-23T05:18:36;101177.25;;;14.14;100.00
36092;BME280;22147;52.388;13.390;2022-07-23T05:21:03;101176.38;;;14.22;100.00
36092;BME280;22147;52.388;13.390;2022-07-23T05:23:30;101177.06;;;14.19;100.00
36092;BME280;22147;52.388;13.390;2022-07-23T05:25:57;101164.72;;;14.20;100.00
36092;BME280;22147;52.388;13.390;2022-07-23T05:28:25;101160.03;;;14.12;100.00
36092;BME280;22147;52.388;13.390;2022-07-23T05:30:52;101163.84;;;14.07;100.00
36092;BME280;22147;52.388;13.390;2022-07-23T05:33:19;101177.13;;;14.10;100.00
36092;BME280;22147;52.388;13.390;2022-07-23T05:35:47;101172.63;;;13.97;100.00
36092;BME280;22147;52.388;13.390;2022-07-23T05:38:14;101188.63;;;13.88;100.00
36092;BME280;22147;52.388;13.390;2022-07-23T05:40:41;101188.91;;;13.95;100.00
36092;BME280;22147;52.388;13.390;2022-07-23T05:43:08;101186.88;;;14.04;100.00
36092;BME280;22147;52.388;13.390;2022-07-23T05:45:35;101199.13;;;14.12;100.00
36092;BME280;22147;52.388;13.390;2022-07-23T05:48:03;101192.38;;;14.13;100.00
36092;BME280;22147;52.388;13.390;2022-07-23T05:50:30;101215.88;;;14.12;100.00
36092;BME280;22147;52.388;13.390;2022-07-23T05:52:58;101199.88;;;14.21;100.00
36092;BME280;22147;52.388;13.390;2022-07-23T05:55:25;101196.28;;;14.20;100.00
36092;BME280;22147;52.388;13.390;2022-07-23T05:57:52;101190.28;;;14.10;100.00
36092;BME280;22147;52.388;13.390;2022-07-23T06:00:19;101186.66;;;14.09;100.00
36092;BME280;22147;52.388;13.390;2022-07-23T06:02:46;101199.13;;;14.12;100.00
36092;BME280;22147;52.388;13.390;2022-07-23T06:05:20;101185.78;;;14.17;100.00
36092;BME280;22147;52.388;13.390;2022-07-23T06:07:48;101156.34;;;14.20;100.00
36092;BME280;22147;52.388;13.390;2022-07-23T06:10:16;101170.31;;;14.20;100.00
36092;BME280;22147;52.388;13.390;2022-07-23T06:12:43;101177.53;;;14.21;100.00
36092;BME280;22147;52.388;13.390;2022-07-23T06:15:10;101194.56;;;14.07;100.00
36092;BME280;22147;52.388;13.390;2022-07-23T06:17:38;101181.56;;;14.11;100.00
36092;BME280;22147;52.388;13.390;2022-07-23T06:20:09;101182.50;;;14.15;100.00
36092;BME280;22147;52.388;13.390;2022-07-23T06:22:37;101174.88;;;14.24;100.00
36092;BME280;22147;52.388;13.390;2022-07-23T06:25:07;101165.66;;;14.24;100.00
36092;BME280;22147;52.388;13.390;2022-07-23T06:27:45;101151.94;;;14.19;100.00
36092;BME280;22147;52.388;13.390;2022-07-23T06:30:14;101156.69;;;14.18;100.00
36092;BME280;22147;52.388;13.390;2022-07-23T06:32:47;101157.22;;;14.12;100.00
36092;BME280;22147;52.388;13.390;2022-07-23T06:35:16;101168.06;;;14.13;100.00
36092;BME280;22147;52.388;13.390;2022-07-23T06:37:44;101156.69;;;14.18;100.00
36092;BME280;22147;52.388;13.390;2022-07-23T06:40:14;101160.78;;;14.21;100.00
36092;BME280;22147;52.388;13.390;2022-07-23T06:42:41;101155.91;;;14.30;100.00
36092;BME280;22147;52.388;13.390;2022-07-23T06:45:09;101160.94;;;14.37;100.00
36092;BME280;22147;52.388;13.390;2022-07-23T06:47:36;101159.94;;;14.41;100.00
36092;BME280;22147;52.388;13.390;2022-07-23T06:50:04;101156.44;;;14.44;100.00
36092;BME280;22147;52.388;13.390;2022-07-23T06:52:31;101154.72;;;14.52;100.00
36092;BME280;22147;52.388;13.390;2022-07-23T06:54:58;101151.88;;;14.61;100.00
36092;BME280;22147;52.388;13.390;2022-07-23T06:57:25;101162.69;;;14.62;100.00
36092;BME280;22147;52.388;13.390;2022-07-23T06:59:53;101168.28;;;14.62;100.00
36092;BME280;22147;52.388;13.390;2022-07-23T07:02:21;101176.25;;;14.52;100.00
36092;BME280;22147;52.388;13.390;2022-07-23T07:04:49;101176.94;;;14.49;100.00
36092;BME280;22147;52.388;13.390;2022-07-23T07:07:16;101157.66;;;14.56;100.00
36092;BME280;22147;52.388;13.390;2022-07-23T07:09:43;101171.84;;;14.51;100.00
36092;BME280;22147;52.388;13.390;2022-07-23T07:12:14;101197.06;;;14.42;100.00
36092;BME280;22147;52.388;13.390;2022-07-23T07:14:42;101191.69;;;14.37;100.00
36092;BME280;22147;52.388;13.390;2022-07-23T07:17:09;101198.56;;;14.60;100.00
36092;BME280;22147;52.388;13.390;2022-07-23T07:19:37;101198.97;;;14.83;100.00
36092;BME280;22147;52.388;13.390;2022-07-23T07:22:04;101194.03;;;15.01;100.00
36092;BME280;22147;52.388;13.390;2022-07-23T07:24:32;101189.50;;;15.09;100.00
36092;BME280;22147;52.388;13.390;2022-07-23T07:27:04;101182.75;;;14.77;100.00
36092;BME280;22147;52.388;13.390;2022-07-23T07:29:32;101186.59;;;14.72;100.00
36092;BME280;22147;52.388;13.390;2022-07-23T07:31:59;101181.25;;;14.79;100.00
36092;BME280;22147;52.388;13.390;2022-07-23T07:34:26;101174.56;;;15.05;100.00
36092;BME280;22147;52.388;13.390;2022-07-23T07:36:53;101169.22;;;15.24;100.00
36092;BME280;22147;52.388;13.390;2022-07-23T07:39:21;101176.09;;;15.39;100.00
36092;BME280;22147;52.388;13.390;2022-07-23T07:41:48;101158.50;;;15.39;100.00
36092;BME280;22147;52.388;13.390;2022-07-23T07:44:16;101157.06;;;15.45;100.00
36092;BME280;22147;52.388;13.390;2022-07-23T07:46:43;101165.50;;;15.33;100.00
36092;BME280;22147;52.388;13.390;2022-07-23T07:49:10;101163.25;;;15.38;100.00
36092;BME280;22147;52.388;13.390;2022-07-23T07:51:41;101167.13;;;15.46;100.00
36092;BME280;22147;52.388;13.390;2022-07-23T07:54:12;101154.75;;;15.22;100.00
36092;BME280;22147;52.388;13.390;2022-07-23T07:56:40;101145.78;;;15.54;100.00
36092;BME280;22147;52.388;13.390;2022-07-23T07:59:07;101136.31;;;15.46;100.00
36092;BME280;22147;52.388;13.390;2022-07-23T08:01:36;101138.75;;;15.72;100.00
36092;BME280;22147;52.388;13.390;2022-07-23T08:04:04;101127.53;;;15.84;100.00
36092;BME280;22147;52.388;13.390;2022-07-23T08:06:32;101133.84;;;15.81;100.00
36092;BME280;22147;52.388;13.390;2022-07-23T08:08:59;101150.09;;;16.04;100.00
36092;BME280;22147;52.388;13.390;2022-07-23T08:11:26;101149.94;;;16.13;100.00
36092;BME280;22147;52.388;13.390;2022-07-23T08:13:53;101146.16;;;16.77;100.00
36092;BME280;22147;52.388;13.390;2022-07-23T08:16:20;101152.59;;;17.09;100.00
36092;BME280;22147;52.388;13.390;2022-07-23T08:18:47;101156.88;;;16.87;100.00
36092;BME280;22147;52.388;13.390;2022-07-23T08:21:15;101147.19;;;16.85;100.00
36092;BME280;22147;52.388;13.390;2022-07-23T08:23:42;101147.19;;;17.01;100.00
36092;BME280;22147;52.388;13.390;2022-07-23T08:26:09;101152.53;;;17.06;100.00
36092;BME280;22147;52.388;13.390;2022-07-23T08:28:36;101161.69;;;17.70;100.00
36092;BME280;22147;52.388;13.390;2022-07-23T08:31:04;101170.19;;;18.09;100.00
36092;BME280;22147;52.388;13.390;2022-07-23T08:33:32;101168.22;;;18.29;100.00
36092;BME280;22147;52.388;13.390;2022-07-23T08:36:02;101165.00;;;17.92;100.00
36092;BME280;22147;52.388;13.390;2022-07-23T08:38:32;101162.63;;;17.78;100.00
36092;BME280;22147;52.388;13.390;2022-07-23T08:41:02;101166.09;;;17.87;100.00
36092;BME280;22147;52.388;13.390;2022-07-23T08:43:33;101154.00;;;18.02;100.00
36092;BME280;22147;52.388;13.390;2022-07-23T08:46:04;101145.53;;;18.41;100.00
36092;BME280;22147;52.388;13.390;2022-07-23T08:48:35;101156.47;;;18.66;100.00
36092;BME280;22147;52.388;13.390;2022-07-23T08:51:06;101160.47;;;18.65;100.00
36092;BME280;22147;52.388;13.390;2022-07-23T08:53:34;101166.84;;;18.42;100.00
36092;BME280;22147;52.388;13.390;2022-07-23T08:56:06;101176.84;;;18.40;100.00
36092;BME280;22147;52.388;13.390;2022-07-23T08:58:35;101176.47;;;18.80;100.00
36092;BME280;22147;52.388;13.390;2022-07-23T09:01:03;101174.66;;;18.72;100.00
36092;BME280;22147;52.388;13.390;2022-07-23T09:03:36;101171.44;;;18.50;100.00
36092;BME280;22147;52.388;13.390;2022-07-23T09:06:06;101164.00;;;18.81;100.00
36092;BME280;22147;52.388;13.390;2022-07-23T09:11:13;101178.66;;;18.71;98.60
36092;BME280;22147;52.388;13.390;2022-07-23T09:13:54;101172.00;;;18.60;100.00
36092;BME280;22147;52.388;13.390;2022-07-23T09:16:31;101175.94;;;18.55;100.00
36092;BME280;22147;52.388;13.390;2022-07-23T09:19:06;101173.78;;;18.68;99.56
36092;BME280;22147;52.388;13.390;2022-07-23T09:21:37;101177.78;;;18.86;100.00
36092;BME280;22147;52.388;13.390;2022-07-23T09:24:12;101178.34;;;18.96;100.00
36092;BME280;22147;52.388;13.390;2022-07-23T09:26:47;101174.19;;;18.89;100.00
36092;BME280;22147;52.388;13.390;2022-07-23T09:29:23;101181.84;;;19.12;98.87
36092;BME280;22147;52.388;13.390;2022-07-23T09:32:01;101190.81;;;19.18;97.73
36092;BME280;22147;52.388;13.390;2022-07-23T09:34:34;101188.53;;;19.04;95.08
36092;BME280;22147;52.388;13.390;2022-07-23T09:37:19;101190.03;;;18.98;98.63
36092;BME280;22147;52.388;13.390;2022-07-23T09:39:49;101185.81;;;19.34;96.99
36092;BME280;22147;52.388;13.390;2022-07-23T09:42:23;101186.22;;;19.09;94.72
36092;BME280;22147;52.388;13.390;2022-07-23T09:44:55;101194.91;;;19.24;97.90
36092;BME280;22147;52.388;13.390;2022-07-23T09:47:29;101192.41;;;18.96;98.61
36092;BME280;22147;52.388;13.390;2022-07-23T09:50:10;101185.09;;;19.14;99.16
36092;BME280;22147;52.388;13.390;2022-07-23T09:52:49;101191.88;;;19.09;93.51
36092;BME280;22147;52.388;13.390;2022-07-23T09:55:18;101201.53;;;19.35;97.75
36092;BME280;22147;52.388;13.390;2022-07-23T09:57:47;101199.19;;;19.41;91.08
36092;BME280;22147;52.388;13.390;2022-07-23T10:00:18;101200.16;;;19.48;93.71
36092;BME280;22147;52.388;13.390;2022-07-23T10:02:47;101201.97;;;19.64;97.24
36092;BME280;22147;52.388;13.390;2022-07-23T10:05:17;101214.03;;;19.87;93.03
36092;BME280;22147;52.388;13.390;2022-07-23T10:07:46;101214.75;;;19.81;88.25
36092;BME280;22147;52.388;13.390;2022-07-23T10:10:22;101210.13;;;19.69;90.72
36092;BME280;22147;52.388;13.390;2022-07-23T10:12:55;101209.13;;;19.31;87.62
36092;BME280;22147;52.388;13.390;2022-07-23T10:15:40;101212.00;;;19.84;87.54
36092;BME280;22147;52.388;13.390;2022-07-23T10:18:11;101208.81;;;19.86;83.89
36092;BME280;22147;52.388;13.390;2022-07-23T10:20:40;101213.84;;;19.73;85.87
36092;BME280;22147;52.388;13.390;2022-07-23T10:23:34;101213.97;;;20.41;84.56
36092;BME280;22147;52.388;13.390;2022-07-23T10:26:35;101213.59;;;20.76;78.03
36092;BME280;22147;52.388;13.390;2022-07-23T10:29:42;101210.13;;;20.56;83.64
36092;BME280;22147;52.388;13.390;2022-07-23T10:36:19;101216.41;;;20.76;79.71
36092;BME280;22147;52.388;13.390;2022-07-23T10:39:30;101216.44;;;20.46;78.38
36092;BME280;22147;52.388;13.390;2022-07-23T10:42:16;101221.19;;;20.68;77.35
36092;BME280;22147;52.388;13.390;2022-07-23T10:44:47;101224.66;;;20.92;73.38
36092;BME280;22147;52.388;13.390;2022-07-23T10:47:29;101231.06;;;20.89;73.59
36092;BME280;22147;52.388;13.390;2022-07-23T10:50:27;101223.34;;;20.82;74.30
36092;BME280;22147;52.388;13.390;2022-07-23T10:53:16;101223.81;;;20.54;75.82
36092;BME280;22147;52.388;13.390;2022-07-23T10:55:51;101225.28;;;20.44;77.90
36092;BME280;22147;52.388;13.390;2022-07-23T10:58:46;101236.88;;;20.05;79.85
36092;BME280;22147;52.388;13.390;2022-07-23T11:01:38;101223.34;;;20.18;78.21
36092;BME280;22147;52.388;13.390;2022-07-23T11:04:06;101222.56;;;20.51;74.45
36092;BME280;22147;52.388;13.390;2022-07-23T11:09:47;101222.91;;;21.18;72.16
36092;BME280;22147;52.388;13.390;2022-07-23T11:15:12;101222.84;;;21.14;72.57
36092;BME280;22147;52.388;13.390;2022-07-23T11:20:23;101218.09;;;20.50;73.84
36092;BME280;22147;52.388;13.390;2022-07-23T11:22:58;101213.91;;;20.67;74.68
36092;BME280;22147;52.388;13.390;2022-07-23T11:28:09;101205.25;;;20.53;76.37
36092;BME280;22147;52.388;13.390;2022-07-23T11:30:48;101209.91;;;20.38;75.49
36092;BME280;22147;52.388;13.390;2022-07-23T11:33:19;101211.88;;;20.34;77.51
36092;BME280;22147;52.388;13.390;2022-07-23T11:36:00;101213.69;;;20.53;74.87
36092;BME280;22147;52.388;13.390;2022-07-23T11:38:31;101211.59;;;20.43;78.81
36092;BME280;22147;52.388;13.390;2022-07-23T11:40:59;101205.00;;;20.65;75.65
36092;BME280;22147;52.388;13.390;2022-07-23T11:43:26;101210.47;;;20.85;73.63
36092;BME280;22147;52.388;13.390;2022-07-23T11:45:59;101202.94;;;21.41;76.80
36092;BME280;22147;52.388;13.390;2022-07-23T11:48:30;101200.84;;;21.34;69.41
36092;BME280;22147;52.388;13.390;2022-07-23T11:51:02;101193.53;;;21.26;70.90
36092;BME280;22147;52.388;13.390;2022-07-23T11:53:33;101196.69;;;21.69;72.15
36092;BME280;22147;52.388;13.390;2022-07-23T11:56:11;101208.06;;;21.80;73.58
36092;BME280;22147;52.388;13.390;2022-07-23T11:58:54;101199.03;;;21.56;68.41
36092;BME280;22147;52.388;13.390;2022-07-23T12:01:26;101205.59;;;21.71;68.26
36092;BME280;22147;52.388;13.390;2022-07-23T12:03:53;101197.78;;;22.12;66.91
36092;BME280;22147;52.388;13.390;2022-07-23T12:06:20;101201.59;;;22.42;66.99
36092;BME280;22147;52.388;13.390;2022-07-23T12:08:48;101201.69;;;22.74;66.80
36092;BME280;22147;52.388;13.390;2022-07-23T12:11:15;101192.38;;;22.81;67.03
36092;BME280;22147;52.388;13.390;2022-07-23T12:13:42;101204.09;;;22.72;62.07
36092;BME280;22147;52.388;13.390;2022-07-23T12:16:13;101187.03;;;22.40;65.18
36092;BME280;22147;52.388;13.390;2022-07-23T12:18:40;101197.13;;;22.41;66.07
36092;BME280;22147;52.388;13.390;2022-07-23T12:21:07;101191.59;;;21.89;66.49
36092;BME280;22147;52.388;13.390;2022-07-23T12:23:35;101192.44;;;21.96;65.79
36092;BME280;22147;52.388;13.390;2022-07-23T12:26:04;101186.75;;;21.89;66.66
36092;BME280;22147;52.388;13.390;2022-07-23T12:28:33;101191.97;;;21.87;68.02
36092;BME280;22147;52.388;13.390;2022-07-23T12:31:04;101190.38;;;21.90;67.37
36092;BME280;22147;52.388;13.390;2022-07-23T12:33:35;101189.66;;;22.07;67.28
36092;BME280;22147;52.388;13.390;2022-07-23T12:36:08;101194.38;;;22.66;67.54
36092;BME280;22147;52.388;13.390;2022-07-23T12:38:49;101184.75;;;22.99;65.56
36092;BME280;22147;52.388;13.390;2022-07-23T12:41:16;101194.41;;;22.84;62.63
36092;BME280;22147;52.388;13.390;2022-07-23T12:43:45;101191.19;;;22.96;63.37
36092;BME280;22147;52.388;13.390;2022-07-23T12:46:19;101198.78;;;22.52;63.07
36092;BME280;22147;52.388;13.390;2022-07-23T12:48:54;101199.56;;;21.72;66.00
36092;BME280;22147;52.388;13.390;2022-07-23T12:51:30;101190.00;;;21.40;66.44
36092;BME280;22147;52.388;13.390;2022-07-23T12:54:09;101181.75;;;21.68;67.63
36092;BME280;22147;52.388;13.390;2022-07-23T12:56:40;101186.28;;;21.84;65.73
36092;BME280;22147;52.388;13.390;2022-07-23T12:59:16;101192.41;;;21.89;65.86
36092;BME280;22147;52.388;13.390;2022-07-23T13:01:54;101183.97;;;22.00;65.88
36092;BME280;22147;52.388;13.390;2022-07-23T13:04:25;101198.31;;;22.36;66.16